sensor_id;sensor_type;location;lat;lon;timestamp;P1;P2;P0
77365;PMS5003;66430;50.182;11.704;2023-11-18T00:00:18;16;13;
77365;PMS5003;66430;50.182;11.704;2023-11-18T00:02:44;11;10;
77365;PMS5003;66430;50.182;11.704;2023-11-18T00:05:10;10;10;
77365;PMS5003;66430;50.182;11.704;2023-11-18T00:07:35;11;10;
77365;PMS5003;66430;50.182;11.704;2023-11-18T00:10:01;12;10;
77365;PMS5003;66430;50.182;11.704;2023-11-18T00:12:26;10;7;
77365;PMS5003;66430;50.182;11.704;2023-11-18T00:14:52;12;11;
77365;PMS5003;66430;50.182;11.704;2023-11-18T00:17:18;11;8;
77365;PMS5003;66430;50.182;11.704;2023-11-18T00:19:43;10;7;
77365;PMS5003;66430;50.182;11.704;2023-11-18T00:22:09;10;8;
77365;PMS5003;66430;50.182;11.704;2023-11-18T00:24:34;10;8;
77365;PMS5003;66430;50.182;11.704;2023-11-18T00:27:00;12;10;
77365;PMS5003;66430;50.182;11.704;2023-11-18T00:29:26;7;7;
77365;PMS5003;66430;50.182;11.704;2023-11-18T00:31:51;11;11;
77365;PMS5003;66430;50.182;11.704;2023-11-18T00:34:17;11;10;
77365;PMS5003;66430;50.182;11.704;2023-11-18T00:36:43;10;10;
77365;PMS5003;66430;50.182;11.704;2023-11-18T00:39:08;10;10;
77365;PMS5003;66430;50.182;11.704;2023-11-18T00:41:34;12;12;
77365;PMS5003;66430;50.182;11.704;2023-11-18T00:43:59;16;16;
77365;PMS5003;66430;50.182;11.704;2023-11-18T00:46:25;17;17;
77365;PMS5003;66430;50.182;11.704;2023-11-18T00:48:50;22;19;
77365;PMS5003;66430;50.182;11.704;2023-11-18T00:51:15;12;12;
77365;PMS5003;66430;50.182;11.704;2023-11-18T00:53:41;20;19;
77365;PMS5003;66430;50.182;11.704;2023-11-18T00:56:07;27;26;
77365;PMS5003;66430;50.182;11.704;2023-11-18T00:58:32;28;24;
77365;PMS5003;66430;50.182;11.704;2023-11-18T01:00:58;26;24;
77365;PMS5003;66430;50.182;11.704;2023-11-18T01:03:24;17;16;
77365;PMS5003;66430;50.182;11.704;2023-11-18T01:05:49;8;7;
77365;PMS5003;66430;50.182;11.704;2023-11-18T01:08:15;34;34;
77365;PMS5003;66430;50.182;11.704;2023-11-18T01:10:40;10;10;
77365;PMS5003;66430;50.182;11.704;2023-11-18T01:13:06;10;7;
77365;PMS5003;66430;50.182;11.704;2023-11-18T01:15:32;8;8;
77365;PMS5003;66430;50.182;11.704;2023-11-18T01:17:57;19;10;
77365;PMS5003;66430;50.182;11.704;2023-11-18T01:20:23;11;10;
77365;PMS5003;66430;50.182;11.704;2023-11-18T01:22:49;11;11;
77365;PMS5003;66430;50.182;11.704;2023-11-18T01:25:15;22;22;
77365;PMS5003;66430;50.182;11.704;2023-11-18T01:27:40;25;22;
77365;PMS5003;66430;50.182;11.704;2023-11-18T01:30:06;26;25;
77365;PMS5003;66430;50.182;11.704;2023-11-18T01:32:31;25;21;
77365;PMS5003;66430;50.182;11.704;2023-11-18T01:34:57;26;24;
77365;PMS5003;66430;50.182;11.704;2023-11-18T01:37:23;30;26;
77365;PMS5003;66430;50.182;11.704;2023-11-18T01:39:49;25;24;
77365;PMS5003;66430;50.182;11.704;2023-11-18T01:42:14;11;11;
77365;PMS5003;66430;50.182;11.704;2023-11-18T01:44:40;29;25;
77365;PMS5003;66430;50.182;11.704;2023-11-18T01:47:10;21;20;
77365;PMS5003;66430;50.182;11.704;2023-11-18T01:49:31;16;11;
77365;PMS5003;66430;50.182;11.704;2023-11-18T01:51:56;17;17;
77365;PMS5003;66430;50.182;11.704;2023-11-18T01:54:22;13;10;
77365;PMS5003;66430;50.182;11.704;2023-11-18T01:56:48;15;12;
77365;PMS5003;66430;50.182;11.704;2023-11-18T01:59:13;16;13;
77365;PMS5003;66430;50.182;11.704;2023-11-18T02:01:39;17;15;
77365;PMS5003;66430;50.182;11.704;2023-11-18T02:04:04;12;12;
77365;PMS5003;66430;50.182;11.704;2023-11-18T02:06:30;10;10;
77365;PMS5003;66430;50.182;11.704;2023-11-18T02:08:55;15;11;
77365;PMS5003;66430;50.182;11.704;2023-11-18T02:11:23;17;15;
77365;PMS5003;66430;50.182;11.704;2023-11-18T02:13:47;13;12;
77365;PMS5003;66430;50.182;11.704;2023-11-18T02:16:12;10;10;
77365;PMS5003;66430;50.182;11.704;2023-11-18T02:18:38;13;13;
77365;PMS5003;66430;50.182;11.704;2023-11-18T02:21:03;13;10;
77365;PMS5003;66430;50.182;11.704;2023-11-18T02:23:28;16;12;
77365;PMS5003;66430;50.182;11.704;2023-11-18T02:25:54;15;11;
77365;PMS5003;66430;50.182;11.704;2023-11-18T02:28:19;24;19;
77365;PMS5003;66430;50.182;11.704;2023-11-18T02:30:45;27;25;
77365;PMS5003;66430;50.182;11.704;2023-11-18T02:33:13;27;25;
77365;PMS5003;66430;50.182;11.704;2023-11-18T02:35:38;26;26;
77365;PMS5003;66430;50.182;11.704;2023-11-18T02:38:02;24;21;
77365;PMS5003;66430;50.182;11.704;2023-11-18T02:40:29;19;16;
77365;PMS5003;66430;50.182;11.704;2023-11-18T02:42:53;33;31;
77365;PMS5003;66430;50.182;11.704;2023-11-18T02:45:19;24;17;
77365;PMS5003;66430;50.182;11.704;2023-11-18T02:47:45;48;45;
77365;PMS5003;66430;50.182;11.704;2023-11-18T02:50:10;13;13;
77365;PMS5003;66430;50.182;11.704;2023-11-18T02:52:36;45;44;
77365;PMS5003;66430;50.182;11.704;2023-11-18T02:55:01;30;30;
77365;PMS5003;66430;50.182;11.704;2023-11-18T02:57:26;17;17;
77365;PMS5003;66430;50.182;11.704;2023-11-18T02:59:52;20;17;
77365;PMS5003;66430;50.182;11.704;2023-11-18T03:02:17;30;30;
77365;PMS5003;66430;50.182;11.704;2023-11-18T03:04:43;11;8;
77365;PMS5003;66430;50.182;11.704;2023-11-18T03:07:08;15;15;
77365;PMS5003;66430;50.182;11.704;2023-11-18T03:09:34;10;10;
77365;PMS5003;66430;50.182;11.704;2023-11-18T03:11:59;12;12;
77365;PMS5003;66430;50.182;11.704;2023-11-18T03:14:25;7;7;
77365;PMS5003;66430;50.182;11.704;2023-11-18T03:16:51;8;8;
77365;PMS5003;66430;50.182;11.704;2023-11-18T03:19:16;7;7;
77365;PMS5003;66430;50.182;11.704;2023-11-18T03:21:42;8;7;
77365;PMS5003;66430;50.182;11.704;2023-11-18T03:24:08;15;8;
77365;PMS5003;66430;50.182;11.704;2023-11-18T03:26:33;10;10;
77365;PMS5003;66430;50.182;11.704;2023-11-18T03:28:59;12;10;
77365;PMS5003;66430;50.182;11.704;2023-11-18T03:31:24;16;16;
77365;PMS5003;66430;50.182;11.704;2023-11-18T03:33:50;14;10;
77365;PMS5003;66430;50.182;11.704;2023-11-18T03:36:15;14;12;
77365;PMS5003;66430;50.182;11.704;2023-11-18T03:38:40;15;15;
77365;PMS5003;66430;50.182;11.704;2023-11-18T03:41:06;14;11;
77365;PMS5003;66430;50.182;11.704;2023-11-18T03:43:31;19;17;
77365;PMS5003;66430;50.182;11.704;2023-11-18T03:45:57;15;15;
77365;PMS5003;66430;50.182;11.704;2023-11-18T03:48:22;19;19;
77365;PMS5003;66430;50.182;11.704;2023-11-18T03:50:47;15;14;
77365;PMS5003;66430;50.182;11.704;2023-11-18T03:53:13;17;17;
77365;PMS5003;66430;50.182;11.704;2023-11-18T03:55:40;21;17;
77365;PMS5003;66430;50.182;11.704;2023-11-18T03:58:04;16;14;
77365;PMS5003;66430;50.182;11.704;2023-11-18T04:00:30;15;12;
77365;PMS5003;66430;50.182;11.704;2023-11-18T04:02:56;16;12;
77365;PMS5003;66430;50.182;11.704;2023-11-18T04:05:22;17;16;
77365;PMS5003;66430;50.182;11.704;2023-11-18T04:07:47;17;17;
77365;PMS5003;66430;50.182;11.704;2023-11-18T04:10:13;25;25;
77365;PMS5003;66430;50.182;11.704;2023-11-18T04:12:38;21;21;
77365;PMS5003;66430;50.182;11.704;2023-11-18T04:15:04;19;15;
77365;PMS5003;66430;50.182;11.704;2023-11-18T04:17:29;21;19;
77365;PMS5003;66430;50.182;11.704;2023-11-18T04:19:54;25;20;
77365;PMS5003;66430;50.182;11.704;2023-11-18T04:22:20;16;15;
77365;PMS5003;66430;50.182;11.704;2023-11-18T04:24:45;12;12;
77365;PMS5003;66430;50.182;11.704;2023-11-18T04:27:11;13;12;
77365;PMS5003;66430;50.182;11.704;2023-11-18T04:29:36;16;13;
77365;PMS5003;66430;50.182;11.704;2023-11-18T04:32:02;12;12;
77365;PMS5003;66430;50.182;11.704;2023-11-18T04:34:27;11;11;
77365;PMS5003;66430;50.182;11.704;2023-11-18T04:36:57;11;11;
77365;PMS5003;66430;50.182;11.704;2023-11-18T04:39:18;12;11;
77365;PMS5003;66430;50.182;11.704;2023-11-18T04:41:43;13;12;
77365;PMS5003;66430;50.182;11.704;2023-11-18T04:44:09;12;10;
77365;PMS5003;66430;50.182;11.704;2023-11-18T04:46:34;11;11;
77365;PMS5003;66430;50.182;11.704;2023-11-18T04:49:00;25;20;
77365;PMS5003;66430;50.182;11.704;2023-11-18T04:51:25;18;16;
77365;PMS5003;66430;50.182;11.704;2023-11-18T04:53:51;22;21;
77365;PMS5003;66430;50.182;11.704;2023-11-18T04:56:16;17;17;
77365;PMS5003;66430;50.182;11.704;2023-11-18T04:58:41;21;17;
77365;PMS5003;66430;50.182;11.704;2023-11-18T05:01:07;21;17;
77365;PMS5003;66430;50.182;11.704;2023-11-18T05:03:33;20;18;
77365;PMS5003;66430;50.182;11.704;2023-11-18T05:05:58;17;15;
77365;PMS5003;66430;50.182;11.704;2023-11-18T05:08:24;20;17;
77365;PMS5003;66430;50.182;11.704;2023-11-18T05:10:49;17;17;
77365;PMS5003;66430;50.182;11.704;2023-11-18T05:13:15;21;18;
77365;PMS5003;66430;50.182;11.704;2023-11-18T05:15:40;15;15;
77365;PMS5003;66430;50.182;11.704;2023-11-18T05:18:05;21;17;
77365;PMS5003;66430;50.182;11.704;2023-11-18T05:20:31;17;16;
77365;PMS5003;66430;50.182;11.704;2023-11-18T05:22:57;15;15;
77365;PMS5003;66430;50.182;11.704;2023-11-18T05:25:22;21;18;
77365;PMS5003;66430;50.182;11.704;2023-11-18T05:27:47;17;16;
77365;PMS5003;66430;50.182;11.704;2023-11-18T05:30:13;20;18;
77365;PMS5003;66430;50.182;11.704;2023-11-18T05:32:38;20;18;
77365;PMS5003;66430;50.182;11.704;2023-11-18T05:35:04;17;16;
77365;PMS5003;66430;50.182;11.704;2023-11-18T05:37:30;21;20;
77365;PMS5003;66430;50.182;11.704;2023-11-18T05:39:55;18;18;
77365;PMS5003;66430;50.182;11.704;2023-11-18T05:42:21;18;16;
77365;PMS5003;66430;50.182;11.704;2023-11-18T05:44:46;20;18;
77365;PMS5003;66430;50.182;11.704;2023-11-18T05:47:11;21;20;
77365;PMS5003;66430;50.182;11.704;2023-11-18T05:49:37;16;16;
77365;PMS5003;66430;50.182;11.704;2023-11-18T05:52:02;31;26;
77365;PMS5003;66430;50.182;11.704;2023-11-18T05:54:28;25;20;
77365;PMS5003;66430;50.182;11.704;2023-11-18T05:56:53;22;21;
77365;PMS5003;66430;50.182;11.704;2023-11-18T05:59:18;23;21;
77365;PMS5003;66430;50.182;11.704;2023-11-18T06:01:43;18;17;
77365;PMS5003;66430;50.182;11.704;2023-11-18T06:04:09;16;15;
77365;PMS5003;66430;50.182;11.704;2023-11-18T06:06:34;22;22;
77365;PMS5003;66430;50.182;11.704;2023-11-18T06:09:00;22;18;
77365;PMS5003;66430;50.182;11.704;2023-11-18T06:11:26;25;22;
77365;PMS5003;66430;50.182;11.704;2023-11-18T06:13:52;30;26;
77365;PMS5003;66430;50.182;11.704;2023-11-18T06:16:17;22;22;
77365;PMS5003;66430;50.182;11.704;2023-11-18T06:18:43;20;18;
77365;PMS5003;66430;50.182;11.704;2023-11-18T06:21:08;22;20;
77365;PMS5003;66430;50.182;11.704;2023-11-18T06:23:33;23;18;
77365;PMS5003;66430;50.182;11.704;2023-11-18T06:25:58;21;17;
77365;PMS5003;66430;50.182;11.704;2023-11-18T06:28:23;26;23;
77365;PMS5003;66430;50.182;11.704;2023-11-18T06:30:48;16;15;
77365;PMS5003;66430;50.182;11.704;2023-11-18T06:33:13;20;20;
77365;PMS5003;66430;50.182;11.704;2023-11-18T06:35:39;26;22;
77365;PMS5003;66430;50.182;11.704;2023-11-18T06:38:04;22;22;
77365;PMS5003;66430;50.182;11.704;2023-11-18T06:40:29;34;27;
77365;PMS5003;66430;50.182;11.704;2023-11-18T06:42:55;22;20;
77365;PMS5003;66430;50.182;11.704;2023-11-18T06:45:20;25;24;
77365;PMS5003;66430;50.182;11.704;2023-11-18T06:47:46;30;24;
77365;PMS5003;66430;50.182;11.704;2023-11-18T06:50:11;32;30;
77365;PMS5003;66430;50.182;11.704;2023-11-18T06:52:36;38;35;
77365;PMS5003;66430;50.182;11.704;2023-11-18T06:55:02;36;35;
77365;PMS5003;66430;50.182;11.704;2023-11-18T06:57:27;35;34;
77365;PMS5003;66430;50.182;11.704;2023-11-18T06:59:52;34;31;
77365;PMS5003;66430;50.182;11.704;2023-11-18T07:02:18;36;31;
77365;PMS5003;66430;50.182;11.704;2023-11-18T07:04:44;28;25;
77365;PMS5003;66430;50.182;11.704;2023-11-18T07:07:09;24;24;
77365;PMS5003;66430;50.182;11.704;2023-11-18T07:09:34;35;30;
77365;PMS5003;66430;50.182;11.704;2023-11-18T07:12:02;29;22;
77365;PMS5003;66430;50.182;11.704;2023-11-18T07:14:25;35;29;
77365;PMS5003;66430;50.182;11.704;2023-11-18T07:16:50;30;28;
77365;PMS5003;66430;50.182;11.704;2023-11-18T07:19:16;30;24;
77365;PMS5003;66430;50.182;11.704;2023-11-18T07:21:41;26;26;
77365;PMS5003;66430;50.182;11.704;2023-11-18T07:24:06;21;19;
77365;PMS5003;66430;50.182;11.704;2023-11-18T07:26:31;27;27;
77365;PMS5003;66430;50.182;11.704;2023-11-18T07:28:57;22;21;
77365;PMS5003;66430;50.182;11.704;2023-11-18T07:31:22;22;21;
77365;PMS5003;66430;50.182;11.704;2023-11-18T07:33:47;23;18;
77365;PMS5003;66430;50.182;11.704;2023-11-18T07:36:12;28;23;
77365;PMS5003;66430;50.182;11.704;2023-11-18T07:38:38;26;25;
77365;PMS5003;66430;50.182;11.704;2023-11-18T07:41:03;22;22;
77365;PMS5003;66430;50.182;11.704;2023-11-18T07:43:29;16;15;
77365;PMS5003;66430;50.182;11.704;2023-11-18T07:45:54;25;20;
77365;PMS5003;66430;50.182;11.704;2023-11-18T07:48:19;21;17;
77365;PMS5003;66430;50.182;11.704;2023-11-18T07:50:45;26;25;
77365;PMS5003;66430;50.182;11.704;2023-11-18T07:53:10;16;16;
77365;PMS5003;66430;50.182;11.704;2023-11-18T07:55:35;17;16;
77365;PMS5003;66430;50.182;11.704;2023-11-18T07:58:01;17;17;
77365;PMS5003;66430;50.182;11.704;2023-11-18T08:00:26;17;13;
77365;PMS5003;66430;50.182;11.704;2023-11-18T08:02:52;13;13;
77365;PMS5003;66430;50.182;11.704;2023-11-18T08:05:17;15;13;
77365;PMS5003;66430;50.182;11.704;2023-11-18T08:07:42;20;16;
77365;PMS5003;66430;50.182;11.704;2023-11-18T08:10:08;20;17;
77365;PMS5003;66430;50.182;11.704;2023-11-18T08:12:34;18;15;
77365;PMS5003;66430;50.182;11.704;2023-11-18T08:14:59;18;18;
77365;PMS5003;66430;50.182;11.704;2023-11-18T08:17:24;15;13;
77365;PMS5003;66430;50.182;11.704;2023-11-18T08:19:50;20;17;
77365;PMS5003;66430;50.182;11.704;2023-11-18T08:22:15;18;17;
77365;PMS5003;66430;50.182;11.704;2023-11-18T08:24:40;21;17;
77365;PMS5003;66430;50.182;11.704;2023-11-18T08:27:05;14;13;
77365;PMS5003;66430;50.182;11.704;2023-11-18T08:29:32;15;13;
77365;PMS5003;66430;50.182;11.704;2023-11-18T08:31:56;21;17;
77365;PMS5003;66430;50.182;11.704;2023-11-18T08:34:23;15;15;
77365;PMS5003;66430;50.182;11.704;2023-11-18T08:36:47;20;17;
77365;PMS5003;66430;50.182;11.704;2023-11-18T08:39:13;15;15;
77365;PMS5003;66430;50.182;11.704;2023-11-18T08:41:38;22;22;
77365;PMS5003;66430;50.182;11.704;2023-11-18T08:44:03;17;13;
77365;PMS5003;66430;50.182;11.704;2023-11-18T08:46:29;26;24;
77365;PMS5003;66430;50.182;11.704;2023-11-18T08:48:54;16;16;
77365;PMS5003;66430;50.182;11.704;2023-11-18T08:51:20;18;17;
77365;PMS5003;66430;50.182;11.704;2023-11-18T08:53:45;16;16;
77365;PMS5003;66430;50.182;11.704;2023-11-18T08:56:10;14;13;
77365;PMS5003;66430;50.182;11.704;2023-11-18T08:58:36;19;14;
77365;PMS5003;66430;50.182;11.704;2023-11-18T09:01:01;11;11;
77365;PMS5003;66430;50.182;11.704;2023-11-18T09:03:27;12;11;
77365;PMS5003;66430;50.182;11.704;2023-11-18T09:05:53;16;13;
77365;PMS5003;66430;50.182;11.704;2023-11-18T09:08:18;17;15;
77365;PMS5003;66430;50.182;11.704;2023-11-18T09:10:43;13;13;
77365;PMS5003;66430;50.182;11.704;2023-11-18T09:13:09;12;12;
77365;PMS5003;66430;50.182;11.704;2023-11-18T09:15:34;10;10;
77365;PMS5003;66430;50.182;11.704;2023-11-18T09:18:00;13;12;
77365;PMS5003;66430;50.182;11.704;2023-11-18T09:20:25;10;10;
77365;PMS5003;66430;50.182;11.704;2023-11-18T09:22:50;7;7;
77365;PMS5003;66430;50.182;11.704;2023-11-18T09:25:16;10;10;
77365;PMS5003;66430;50.182;11.704;2023-11-18T09:27:42;14;13;
77365;PMS5003;66430;50.182;11.704;2023-11-18T09:30:08;10;10;
77365;PMS5003;66430;50.182;11.704;2023-11-18T09:32:32;14;12;
77365;PMS5003;66430;50.182;11.704;2023-11-18T09:34:58;10;9;
77365;PMS5003;66430;50.182;11.704;2023-11-18T09:37:23;12;9;
77365;PMS5003;66430;50.182;11.704;2023-11-18T09:39:49;15;14;
77365;PMS5003;66430;50.182;11.704;2023-11-18T09:42:14;14;13;
77365;PMS5003;66430;50.182;11.704;2023-11-18T09:44:40;13;13;
77365;PMS5003;66430;50.182;11.704;2023-11-18T09:47:07;9;9;
77365;PMS5003;66430;50.182;11.704;2023-11-18T09:49:31;14;14;
77365;PMS5003;66430;50.182;11.704;2023-11-18T09:51:57;14;14;
77365;PMS5003;66430;50.182;11.704;2023-11-18T09:54:23;13;10;
77365;PMS5003;66430;50.182;11.704;2023-11-18T09:56:49;13;10;
77365;PMS5003;66430;50.182;11.704;2023-11-18T09:59:15;12;12;
77365;PMS5003;66430;50.182;11.704;2023-11-18T10:01:38;13;13;
77365;PMS5003;66430;50.182;11.704;2023-11-18T10:04:03;14;13;
77365;PMS5003;66430;50.182;11.704;2023-11-18T10:06:29;12;12;
77365;PMS5003;66430;50.182;11.704;2023-11-18T10:08:54;13;13;
77365;PMS5003;66430;50.182;11.704;2023-11-18T10:11:19;13;13;
77365;PMS5003;66430;50.182;11.704;2023-11-18T10:13:44;16;10;
77365;PMS5003;66430;50.182;11.704;2023-11-18T10:16:10;14;12;
77365;PMS5003;66430;50.182;11.704;2023-11-18T10:18:37;15;13;
77365;PMS5003;66430;50.182;11.704;2023-11-18T10:21:02;15;14;
77365;PMS5003;66430;50.182;11.704;2023-11-18T10:23:27;15;15;
77365;PMS5003;66430;50.182;11.704;2023-11-18T10:25:57;14;14;
77365;PMS5003;66430;50.182;11.704;2023-11-18T10:28:22;19;19;
77365;PMS5003;66430;50.182;11.704;2023-11-18T10:30:43;10;10;
77365;PMS5003;66430;50.182;11.704;2023-11-18T10:33:09;22;19;
77365;PMS5003;66430;50.182;11.704;2023-11-18T10:35:34;16;16;
77365;PMS5003;66430;50.182;11.704;2023-11-18T10:38:01;15;13;
77365;PMS5003;66430;50.182;11.704;2023-11-18T10:40:25;15;14;
77365;PMS5003;66430;50.182;11.704;2023-11-18T10:42:51;16;16;
77365;PMS5003;66430;50.182;11.704;2023-11-18T10:47:42;14;11;
77365;PMS5003;66430;50.182;11.704;2023-11-18T10:50:08;19;15;
77365;PMS5003;66430;50.182;11.704;2023-11-18T10:52:33;14;14;
77365;PMS5003;66430;50.182;11.704;2023-11-18T10:54:59;11;11;
77365;PMS5003;66430;50.182;11.704;2023-11-18T10:57:24;11;10;
77365;PMS5003;66430;50.182;11.704;2023-11-18T11:02:18;15;14;
77365;PMS5003;66430;50.182;11.704;2023-11-18T11:04:42;21;18;
77365;PMS5003;66430;50.182;11.704;2023-11-18T11:07:06;10;9;
77365;PMS5003;66430;50.182;11.704;2023-11-18T11:09:31;9;9;
77365;PMS5003;66430;50.182;11.704;2023-11-18T11:11:57;9;8;
77365;PMS5003;66430;50.182;11.704;2023-11-18T11:14:22;11;11;
77365;PMS5003;66430;50.182;11.704;2023-11-18T11:16:51;11;10;
77365;PMS5003;66430;50.182;11.704;2023-11-18T11:19:15;9;7;
77365;PMS5003;66430;50.182;11.704;2023-11-18T11:21:40;10;8;
77365;PMS5003;66430;50.182;11.704;2023-11-18T11:24:05;10;8;
77365;PMS5003;66430;50.182;11.704;2023-11-18T11:26:34;9;9;
77365;PMS5003;66430;50.182;11.704;2023-11-18T11:29:00;9;8;
77365;PMS5003;66430;50.182;11.704;2023-11-18T11:31:22;7;7;
77365;PMS5003;66430;50.182;11.704;2023-11-18T11:33:49;5;5;
77365;PMS5003;66430;50.182;11.704;2023-11-18T11:36:17;8;5;
77365;PMS5003;66430;50.182;11.704;2023-11-18T11:38:38;8;6;
77365;PMS5003;66430;50.182;11.704;2023-11-18T11:41:04;8;7;
77365;PMS5003;66430;50.182;11.704;2023-11-18T11:43:29;5;5;
77365;PMS5003;66430;50.182;11.704;2023-11-18T11:45:54;5;5;
77365;PMS5003;66430;50.182;11.704;2023-11-18T11:48:20;4;4;
77365;PMS5003;66430;50.182;11.704;2023-11-18T11:50:54;9;7;
77365;PMS5003;66430;50.182;11.704;2023-11-18T11:53:13;7;7;
77365;PMS5003;66430;50.182;11.704;2023-11-18T11:55:37;7;7;
77365;PMS5003;66430;50.182;11.704;2023-11-18T11:58:02;6;5;
77365;PMS5003;66430;50.182;11.704;2023-11-18T12:00:28;7;7;
77365;PMS5003;66430;50.182;11.704;2023-11-18T12:02:53;8;5;
77365;PMS5003;66430;50.182;11.704;2023-11-18T12:05:19;10;7;
77365;PMS5003;66430;50.182;11.704;2023-11-18T12:07:44;9;8;
77365;PMS5003;66430;50.182;11.704;2023-11-18T12:10:10;7;5;
77365;PMS5003;66430;50.182;11.704;2023-11-18T12:12:35;10;8;
77365;PMS5003;66430;50.182;11.704;2023-11-18T12:15:01;9;8;
77365;PMS5003;66430;50.182;11.704;2023-11-18T12:17:27;9;8;
77365;PMS5003;66430;50.182;11.704;2023-11-18T12:19:52;7;5;
77365;PMS5003;66430;50.182;11.704;2023-11-18T12:22:18;7;5;
77365;PMS5003;66430;50.182;11.704;2023-11-18T12:24:44;9;7;
77365;PMS5003;66430;50.182;11.704;2023-11-18T12:27:09;7;5;
77365;PMS5003;66430;50.182;11.704;2023-11-18T12:29:34;8;8;
77365;PMS5003;66430;50.182;11.704;2023-11-18T12:32:00;9;9;
77365;PMS5003;66430;50.182;11.704;2023-11-18T12:39:23;8;6;
77365;PMS5003;66430;50.182;11.704;2023-11-18T12:41:42;10;10;
77365;PMS5003;66430;50.182;11.704;2023-11-18T12:44:15;10;9;
77365;PMS5003;66430;50.182;11.704;2023-11-18T12:48:59;11;10;
77365;PMS5003;66430;50.182;11.704;2023-11-18T12:51:25;11;11;
77365;PMS5003;66430;50.182;11.704;2023-11-18T12:53:50;18;15;
77365;PMS5003;66430;50.182;11.704;2023-11-18T12:56:16;15;13;
77365;PMS5003;66430;50.182;11.704;2023-11-18T12:58:41;11;11;
77365;PMS5003;66430;50.182;11.704;2023-11-18T13:01:07;17;17;
77365;PMS5003;66430;50.182;11.704;2023-11-18T13:03:32;17;15;
77365;PMS5003;66430;50.182;11.704;2023-11-18T13:05:57;16;16;
77365;PMS5003;66430;50.182;11.704;2023-11-18T13:08:23;17;17;
77365;PMS5003;66430;50.182;11.704;2023-11-18T13:10:49;18;18;
77365;PMS5003;66430;50.182;11.704;2023-11-18T13:13:14;19;18;
77365;PMS5003;66430;50.182;11.704;2023-11-18T13:15:39;19;18;
77365;PMS5003;66430;50.182;11.704;2023-11-18T13:18:05;17;16;
77365;PMS5003;66430;50.182;11.704;2023-11-18T13:20:30;19;17;
77365;PMS5003;66430;50.182;11.704;2023-11-18T13:22:56;19;19;
77365;PMS5003;66430;50.182;11.704;2023-11-18T13:25:22;20;18;
77365;PMS5003;66430;50.182;11.704;2023-11-18T13:27:47;20;19;
77365;PMS5003;66430;50.182;11.704;2023-11-18T13:30:13;19;17;
77365;PMS5003;66430;50.182;11.704;2023-11-18T13:32:40;20;18;
77365;PMS5003;66430;50.182;11.704;2023-11-18T13:35:04;23;21;
77365;PMS5003;66430;50.182;11.704;2023-11-18T13:37:29;19;18;
77365;PMS5003;66430;50.182;11.704;2023-11-18T13:39:55;19;18;
77365;PMS5003;66430;50.182;11.704;2023-11-18T13:42:21;21;19;
77365;PMS5003;66430;50.182;11.704;2023-11-18T13:44:46;26;23;
77365;PMS5003;66430;50.182;11.704;2023-11-18T13:47:11;21;17;
77365;PMS5003;66430;50.182;11.704;2023-11-18T13:49:36;24;21;
77365;PMS5003;66430;50.182;11.704;2023-11-18T13:52:02;23;23;
77365;PMS5003;66430;50.182;11.704;2023-11-18T13:54:27;20;19;
77365;PMS5003;66430;50.182;11.704;2023-11-18T13:56:53;24;20;
77365;PMS5003;66430;50.182;11.704;2023-11-18T13:59:18;25;21;
77365;PMS5003;66430;50.182;11.704;2023-11-18T14:01:44;20;20;
77365;PMS5003;66430;50.182;11.704;2023-11-18T14:04:09;27;24;
77365;PMS5003;66430;50.182;11.704;2023-11-18T14:06:35;27;27;
77365;PMS5003;66430;50.182;11.704;2023-11-18T14:08:59;24;20;
77365;PMS5003;66430;50.182;11.704;2023-11-18T14:11:25;21;20;
77365;PMS5003;66430;50.182;11.704;2023-11-18T14:13:51;24;24;
77365;PMS5003;66430;50.182;11.704;2023-11-18T14:16:16;28;24;
77365;PMS5003;66430;50.182;11.704;2023-11-18T14:18:42;24;23;
77365;PMS5003;66430;50.182;11.704;2023-11-18T14:21:08;29;27;
77365;PMS5003;66430;50.182;11.704;2023-11-18T14:23:33;26;23;
77365;PMS5003;66430;50.182;11.704;2023-11-18T14:25:58;27;24;
77365;PMS5003;66430;50.182;11.704;2023-11-18T14:28:24;28;23;
77365;PMS5003;66430;50.182;11.704;2023-11-18T14:30:49;27;27;
77365;PMS5003;66430;50.182;11.704;2023-11-18T14:33:15;24;24;
77365;PMS5003;66430;50.182;11.704;2023-11-18T14:35:45;30;27;
77365;PMS5003;66430;50.182;11.704;2023-11-18T14:38:06;27;24;
77365;PMS5003;66430;50.182;11.704;2023-11-18T14:40:31;26;26;
77365;PMS5003;66430;50.182;11.704;2023-11-18T14:42:57;28;27;
77365;PMS5003;66430;50.182;11.704;2023-11-18T14:45:22;28;25;
77365;PMS5003;66430;50.182;11.704;2023-11-18T14:47:48;23;19;
77365;PMS5003;66430;50.182;11.704;2023-11-18T14:50:18;30;25;
77365;PMS5003;66430;50.182;11.704;2023-11-18T14:52:40;31;27;
77365;PMS5003;66430;50.182;11.704;2023-11-18T14:55:05;27;25;
77365;PMS5003;66430;50.182;11.704;2023-11-18T14:57:31;31;31;
77365;PMS5003;66430;50.182;11.704;2023-11-18T14:59:57;33;32;
77365;PMS5003;66430;50.182;11.704;2023-11-18T15:02:22;29;27;
77365;PMS5003;66430;50.182;11.704;2023-11-18T15:04:48;24;23;
77365;PMS5003;66430;50.182;11.704;2023-11-18T15:07:13;30;26;
77365;PMS5003;66430;50.182;11.704;2023-11-18T15:09:39;27;23;
77365;PMS5003;66430;50.182;11.704;2023-11-18T15:12:04;26;22;
77365;PMS5003;66430;50.182;11.704;2023-11-18T15:14:30;23;22;
77365;PMS5003;66430;50.182;11.704;2023-11-18T15:16:55;18;18;
77365;PMS5003;66430;50.182;11.704;2023-11-18T15:19:20;31;26;
77365;PMS5003;66430;50.182;11.704;2023-11-18T15:21:45;28;23;
77365;PMS5003;66430;50.182;11.704;2023-11-18T15:24:11;29;23;
77365;PMS5003;66430;50.182;11.704;2023-11-18T15:26:36;26;24;
77365;PMS5003;66430;50.182;11.704;2023-11-18T15:29:01;30;26;
77365;PMS5003;66430;50.182;11.704;2023-11-18T15:31:27;29;25;
77365;PMS5003;66430;50.182;11.704;2023-11-18T15:33:52;30;25;
77365;PMS5003;66430;50.182;11.704;2023-11-18T15:36:18;27;27;
77365;PMS5003;66430;50.182;11.704;2023-11-18T15:38:43;29;23;
77365;PMS5003;66430;50.182;11.704;2023-11-18T15:41:08;31;28;
77365;PMS5003;66430;50.182;11.704;2023-11-18T15:43:33;29;28;
77365;PMS5003;66430;50.182;11.704;2023-11-18T15:45:59;33;29;
77365;PMS5003;66430;50.182;11.704;2023-11-18T15:48:25;26;26;
77365;PMS5003;66430;50.182;11.704;2023-11-18T15:50:50;24;24;
77365;PMS5003;66430;50.182;11.704;2023-11-18T15:53:16;37;34;
77365;PMS5003;66430;50.182;11.704;2023-11-18T15:55:41;30;29;
77365;PMS5003;66430;50.182;11.704;2023-11-18T15:58:07;29;25;
77365;PMS5003;66430;50.182;11.704;2023-11-18T16:00:32;28;24;
77365;PMS5003;66430;50.182;11.704;2023-11-18T16:02:58;23;22;
77365;PMS5003;66430;50.182;11.704;2023-11-18T16:05:28;30;26;